Time;durP1;ratioP1;P1;durP2;ratioP2;P2;SDS_P1;SDS_P2;PMS_P1;PMS_P2;Temp;Humidity;BMP_temperature;BMP_pressure;BME280_temperature;BME280_humidity;BME280_pressure;Samples;Min_cycle;Max_cycle;Signal;HPM_P1;HPM_P2
2023/01/22 00:02:21;;;;;;;5.95;2.67;;;;;;;;;;5034161;28;20124;-78
2023/01/22 00:04:47;;;;;;;11.88;3.10;;;;;;;;;;5036740;28;20021;-78
2023/01/22 00:07:14;;;;;;;5.15;2.47;;;;;;;;;;5048757;28;20052;-77
2023/01/22 00:09:41;;;;;;;6.00;2.95;;;;;;;;;;5039730;28;20021;-78
2023/01/22 00:12:07;;;;;;;6.03;3.63;;;;;;;;;;5063697;28;20033;-78
2023/01/22 00:14:33;;;;;;;4.65;3.45;;;;;;;;;;5034284;28;20030;-78
2023/01/22 00:16:59;;;;;;;4.72;3.53;;;;;;;;;;5047234;28;20491;-77
2023/01/22 00:19:25;;;;;;;7.68;3.70;;;;;;;;;;5031845;28;20505;-78
2023/01/22 00:21:52;;;;;;;7.50;3.17;;;;;;;;;;5033477;28;20191;-78
2023/01/22 00:24:18;;;;;;;4.15;2.67;;;;;;;;;;5037693;28;20515;-78
2023/01/22 00:26:44;;;;;;;3.92;2.53;;;;;;;;;;5046262;28;20024;-78
2023/01/22 00:29:10;;;;;;;4.70;2.63;;;;;;;;;;5036966;28;20025;-77
2023/01/22 00:31:36;;;;;;;3.80;2.53;;;;;;;;;;5033220;28;20033;-78
2023/01/22 00:34:03;;;;;;;6.10;3.13;;;;;;;;;;5035892;28;20033;-78
2023/01/22 00:36:29;;;;;;;6.35;2.70;;;;;;;;;;5047441;28;20486;-78
2023/01/22 00:38:55;;;;;;;4.70;2.80;;;;;;;;;;5052978;28;20025;-78
2023/01/22 00:41:21;;;;;;;4.68;3.00;;;;;;;;;;5042497;28;20025;-78
2023/01/22 00:43:47;;;;;;;4.60;2.80;;;;;;;;;;5044345;28;20053;-78
2023/01/22 00:46:15;;;;;;;5.00;2.50;;;;;;;;;;5039284;28;20030;-78
2023/01/22 00:48:41;;;;;;;3.63;2.25;;;;;;;;;;5036144;28;20120;-78
2023/01/22 00:51:07;;;;;;;4.72;2.70;;;;;;;;;;5038658;28;20033;-77
2023/01/22 00:53:34;;;;;;;4.68;2.45;;;;;;;;;;5034878;28;20437;-76
2023/01/22 00:56:01;;;;;;;3.75;2.72;;;;;;;;;;5037262;28;20040;-78
2023/01/22 00:58:27;;;;;;;4.45;2.78;;;;;;;;;;5042812;28;20108;-77
2023/01/22 01:00:53;;;;;;;8.48;2.83;;;;;;;;;;5029274;28;20488;-77
2023/01/22 01:03:26;;;;;;;5.70;2.72;;;;;;;;;;5038666;28;20438;-78
2023/01/22 01:06:03;;;;;;;4.68;2.60;;;;;;;;;;5039785;28;20033;-77
2023/01/22 01:08:31;;;;;;;3.85;2.28;;;;;;;;;;5049055;28;20029;-77
2023/01/22 01:11:01;;;;;;;4.43;2.35;;;;;;;;;;5040956;28;20541;-78
2023/01/22 01:13:28;;;;;;;3.25;2.47;;;;;;;;;;5028941;28;20033;-77
2023/01/22 01:16:14;;;;;;;3.22;2.25;;;;;;;;;;5030911;28;20120;-78
2023/01/22 01:18:40;;;;;;;4.50;2.72;;;;;;;;;;5036167;28;20117;-77
2023/01/22 01:21:06;;;;;;;3.22;2.28;;;;;;;;;;5036213;28;20394;-78
2023/01/22 01:23:33;;;;;;;2.60;2.40;;;;;;;;;;5036613;28;20025;-78
2023/01/22 01:25:59;;;;;;;3.08;2.38;;;;;;;;;;5032275;28;20049;-78
2023/01/22 01:28:27;;;;;;;5.60;2.42;;;;;;;;;;5030555;28;20022;-78
2023/01/22 01:30:53;;;;;;;2.60;2.20;;;;;;;;;;5037421;28;20068;-77
2023/01/22 01:33:19;;;;;;;2.58;2.30;;;;;;;;;;5047361;28;20021;-75
2023/01/22 01:35:45;;;;;;;3.63;2.10;;;;;;;;;;5030649;28;20473;-77
2023/01/22 01:38:12;;;;;;;2.95;1.95;;;;;;;;;;5036521;28;20056;-78
2023/01/22 01:40:41;;;;;;;2.72;2.10;;;;;;;;;;5033798;28;20124;-78
2023/01/22 01:43:13;;;;;;;3.42;2.85;;;;;;;;;;5035709;28;20083;-77
2023/01/22 01:45:39;;;;;;;3.00;2.28;;;;;;;;;;5042404;28;20428;-78
2023/01/22 01:48:06;;;;;;;3.08;2.20;;;;;;;;;;5040905;28;20067;-78
2023/01/22 01:50:33;;;;;;;3.88;2.22;;;;;;;;;;5034503;28;20021;-78
2023/01/22 01:53:00;;;;;;;4.57;2.40;;;;;;;;;;5033663;28;20100;-78
2023/01/22 01:55:27;;;;;;;3.42;2.13;;;;;;;;;;5042958;28;20402;-77
2023/01/22 01:57:56;;;;;;;3.55;2.17;;;;;;;;;;5038011;28;20385;-78
2023/01/22 02:00:22;;;;;;;2.40;2.08;;;;;;;;;;5031706;28;20072;-77
2023/01/22 02:02:48;;;;;;;3.25;1.98;;;;;;;;;;5031789;28;20051;-77
2023/01/22 02:05:19;;;;;;;2.20;1.80;;;;;;;;;;5038057;28;20809;-78
2023/01/22 02:07:45;;;;;;;2.72;1.90;;;;;;;;;;5033132;28;20075;-77
2023/01/22 02:10:11;;;;;;;3.70;2.40;;;;;;;;;;5043780;28;20355;-78
2023/01/22 02:12:37;;;;;;;3.88;2.75;;;;;;;;;;5041526;28;20033;-78
2023/01/22 02:15:04;;;;;;;4.05;2.10;;;;;;;;;;5030215;28;20033;-77
2023/01/22 02:17:30;;;;;;;3.75;2.20;;;;;;;;;;5035224;28;20037;-77
2023/01/22 02:19:56;;;;;;;4.30;2.42;;;;;;;;;;5031854;28;20046;-78
2023/01/22 02:22:28;;;;;;;4.18;1.80;;;;;;;;;;5034752;28;20505;-77
2023/01/22 02:24:54;;;;;;;2.70;1.85;;;;;;;;;;5044885;28;20040;-78
2023/01/22 02:27:20;;;;;;;2.13;1.85;;;;;;;;;;5034158;28;20090;-77
2023/01/22 02:29:46;;;;;;;2.83;2.00;;;;;;;;;;5028628;28;20668;-77
2023/01/22 02:32:13;;;;;;;3.20;2.20;;;;;;;;;;5031034;28;20091;-78
2023/01/22 02:34:39;;;;;;;5.05;2.72;;;;;;;;;;5032054;28;20030;-78
2023/01/22 02:37:05;;;;;;;4.30;2.90;;;;;;;;;;5029432;28;20053;-78
2023/01/22 02:39:31;;;;;;;4.05;2.00;;;;;;;;;;5032583;28;20410;-77
2023/01/22 02:41:58;;;;;;;3.45;2.55;;;;;;;;;;5029490;28;20025;-77
2023/01/22 02:44:24;;;;;;;4.88;2.17;;;;;;;;;;5034533;28;20096;-78
2023/01/22 02:46:50;;;;;;;3.03;2.13;;;;;;;;;;5035708;28;20037;-78
2023/01/22 02:49:16;;;;;;;4.45;2.10;;;;;;;;;;5029669;28;20033;-78
2023/01/22 02:51:42;;;;;;;8.55;2.25;;;;;;;;;;5045452;28;20047;-77
2023/01/22 02:54:08;;;;;;;2.78;2.00;;;;;;;;;;5031508;28;20026;-76
2023/01/22 02:56:34;;;;;;;4.30;2.10;;;;;;;;;;5031158;28;20029;-77
2023/01/22 02:59:01;;;;;;;3.63;1.90;;;;;;;;;;5038984;28;20021;-78
2023/01/22 03:01:27;;;;;;;2.28;1.88;;;;;;;;;;5034553;28;20060;-77
2023/01/22 03:03:57;;;;;;;1.90;1.75;;;;;;;;;;5028647;28;20051;-77
2023/01/22 03:06:27;;;;;;;3.95;1.90;;;;;;;;;;5038842;28;20078;-78
2023/01/22 03:08:55;;;;;;;2.15;1.95;;;;;;;;;;5030909;28;20056;-77
2023/01/22 03:11:22;;;;;;;4.03;3.35;;;;;;;;;;5035654;28;20351;-78
2023/01/22 03:22:02;;;;;;;3.17;2.00;;;;;;;;;;5035413;28;20071;-78
2023/01/22 03:24:28;;;;;;;3.83;2.30;;;;;;;;;;5034025;28;20033;-77
2023/01/22 03:26:54;;;;;;;3.67;3.08;;;;;;;;;;5037129;28;20032;-78
2023/01/22 03:29:20;;;;;;;2.65;2.22;;;;;;;;;;5033305;28;20024;-78
2023/01/22 03:31:47;;;;;;;3.20;2.03;;;;;;;;;;5034701;28;20030;-78
2023/01/22 03:34:17;;;;;;;2.50;1.80;;;;;;;;;;5035120;28;20021;-78
2023/01/22 03:36:43;;;;;;;3.42;1.75;;;;;;;;;;5044085;28;20108;-78
2023/01/22 03:39:10;;;;;;;2.72;1.90;;;;;;;;;;5050762;28;20378;-78
2023/01/22 03:41:36;;;;;;;3.13;1.90;;;;;;;;;;5039115;28;20788;-77
2023/01/22 03:44:02;;;;;;;2.50;1.77;;;;;;;;;;5035627;28;20025;-77
2023/01/22 03:46:29;;;;;;;4.03;1.92;;;;;;;;;;5035942;28;20344;-78
2023/01/22 03:48:55;;;;;;;1.90;1.70;;;;;;;;;;5037307;28;20025;-78
2023/01/22 03:51:22;;;;;;;1.73;1.63;;;;;;;;;;5037543;28;20013;-78
2023/01/22 03:53:48;;;;;;;2.80;1.80;;;;;;;;;;5037409;28;20104;-77
2023/01/22 03:56:18;;;;;;;4.30;1.92;;;;;;;;;;5045075;28;20025;-78
2023/01/22 03:58:44;;;;;;;4.72;2.25;;;;;;;;;;5043842;28;20028;-78
2023/01/22 04:01:12;;;;;;;2.55;1.83;;;;;;;;;;5043822;28;20021;-77
2023/01/22 04:03:38;;;;;;;4.18;1.80;;;;;;;;;;5033664;28;20033;-78
2023/01/22 04:06:05;;;;;;;2.65;2.05;;;;;;;;;;5039438;28;20116;-77
2023/01/22 04:08:32;;;;;;;3.42;1.92;;;;;;;;;;5032328;28;20021;-78
2023/01/22 04:10:59;;;;;;;3.35;1.80;;;;;;;;;;5038400;28;20095;-78
2023/01/22 04:13:26;;;;;;;3.83;1.70;;;;;;;;;;5045074;28;20379;-78
2023/01/22 04:15:52;;;;;;;4.30;2.20;;;;;;;;;;5036796;28;20022;-78
2023/01/22 04:18:18;;;;;;;3.80;2.00;;;;;;;;;;5040593;28;20029;-78
2023/01/22 04:20:45;;;;;;;2.50;1.80;;;;;;;;;;5038482;28;20044;-77
2023/01/22 04:23:11;;;;;;;2.95;1.83;;;;;;;;;;5048375;28;20127;-78
2023/01/22 04:25:37;;;;;;;2.42;1.60;;;;;;;;;;5035957;28;20022;-78
2023/01/22 04:28:03;;;;;;;2.70;1.77;;;;;;;;;;5039085;28;20021;-78
2023/01/22 04:30:29;;;;;;;5.35;1.70;;;;;;;;;;5043725;28;20466;-77
2023/01/22 04:32:56;;;;;;;3.67;1.85;;;;;;;;;;5043295;28;20509;-78
2023/01/22 04:35:22;;;;;;;1.98;1.50;;;;;;;;;;5040316;28;20064;-78
2023/01/22 04:37:48;;;;;;;4.45;1.80;;;;;;;;;;5045794;28;20033;-77
2023/01/22 04:40:14;;;;;;;2.90;1.77;;;;;;;;;;5043118;28;20695;-78
2023/01/22 04:42:40;;;;;;;4.68;2.33;;;;;;;;;;5046675;28;20029;-78
2023/01/22 04:45:07;;;;;;;3.67;2.95;;;;;;;;;;5035864;28;20037;-77
2023/01/22 04:47:33;;;;;;;4.10;2.08;;;;;;;;;;5039477;28;20135;-78
2023/01/22 04:49:59;;;;;;;3.85;2.35;;;;;;;;;;5035230;28;20048;-78
2023/01/22 04:52:26;;;;;;;2.40;1.58;;;;;;;;;;5043644;28;20033;-78
2023/01/22 04:54:52;;;;;;;3.00;1.80;;;;;;;;;;5031756;28;20381;-77
2023/01/22 04:57:18;;;;;;;2.50;1.80;;;;;;;;;;5038049;28;20107;-78
2023/01/22 04:59:45;;;;;;;3.55;1.77;;;;;;;;;;5032127;28;20026;-78
2023/01/22 05:02:11;;;;;;;2.20;1.60;;;;;;;;;;5043791;28;20027;-78
2023/01/22 05:04:37;;;;;;;10.45;2.33;;;;;;;;;;5041592;28;20025;-78
2023/01/22 05:07:03;;;;;;;1.65;1.55;;;;;;;;;;5036686;28;20093;-77
2023/01/22 05:09:29;;;;;;;4.85;1.88;;;;;;;;;;5037849;28;20414;-78
2023/01/22 05:11:55;;;;;;;3.17;1.92;;;;;;;;;;5035750;28;20033;-78
2023/01/22 05:14:21;;;;;;;2.90;2.10;;;;;;;;;;5037519;28;20553;-77
2023/01/22 05:16:48;;;;;;;4.32;2.00;;;;;;;;;;5029117;28;20028;-77
2023/01/22 05:19:14;;;;;;;4.93;2.20;;;;;;;;;;5035793;28;20470;-78
2023/01/22 05:21:40;;;;;;;2.78;2.17;;;;;;;;;;5036174;28;20046;-77
2023/01/22 05:24:06;;;;;;;3.75;2.08;;;;;;;;;;5037982;28;20041;-78
2023/01/22 05:26:32;;;;;;;3.15;2.33;;;;;;;;;;5046683;28;20088;-77
2023/01/22 05:28:58;;;;;;;3.72;2.55;;;;;;;;;;5043417;28;20048;-76
2023/01/22 05:31:24;;;;;;;4.82;2.10;;;;;;;;;;5047231;28;20025;-77
2023/01/22 05:33:50;;;;;;;5.85;2.50;;;;;;;;;;5041210;28;20037;-77
2023/01/22 05:36:16;;;;;;;3.38;2.22;;;;;;;;;;5036187;28;20374;-78
2023/01/22 05:38:42;;;;;;;4.78;2.20;;;;;;;;;;5040450;28;20029;-78
2023/01/22 05:41:09;;;;;;;4.50;2.00;;;;;;;;;;5038952;28;20030;-77
2023/01/22 05:43:38;;;;;;;4.82;2.70;;;;;;;;;;5037978;28;20025;-78
2023/01/22 05:46:04;;;;;;;4.00;2.15;;;;;;;;;;5035894;28;20068;-78
2023/01/22 05:48:33;;;;;;;4.05;2.10;;;;;;;;;;5046694;28;20533;-77
2023/01/22 05:51:04;;;;;;;2.03;1.83;;;;;;;;;;5033525;28;20366;-78
2023/01/22 05:53:30;;;;;;;5.20;2.72;;;;;;;;;;5038590;28;20048;-78
2023/01/22 05:56:01;;;;;;;4.38;2.70;;;;;;;;;;5036011;28;20025;-77
2023/01/22 05:58:27;;;;;;;2.10;1.90;;;;;;;;;;5035568;28;20033;-78
2023/01/22 06:00:53;;;;;;;4.60;2.17;;;;;;;;;;5030378;28;20104;-77
2023/01/22 06:03:19;;;;;;;4.85;2.10;;;;;;;;;;5039648;28;20032;-77
2023/01/22 06:05:46;;;;;;;4.38;2.03;;;;;;;;;;5029470;28;20025;-77
2023/01/22 06:08:12;;;;;;;2.53;2.05;;;;;;;;;;5042586;28;20026;-78
2023/01/22 06:10:38;;;;;;;4.88;2.30;;;;;;;;;;5033611;28;20040;-77
2023/01/22 06:13:04;;;;;;;3.08;2.20;;;;;;;;;;5031989;28;20037;-77
2023/01/22 06:15:30;;;;;;;6.07;2.35;;;;;;;;;;5042085;28;20063;-78
2023/01/22 06:18:00;;;;;;;3.38;2.03;;;;;;;;;;5034518;28;20465;-77
2023/01/22 06:20:26;;;;;;;3.33;1.90;;;;;;;;;;5034594;28;20565;-77
2023/01/22 06:22:52;;;;;;;4.03;2.00;;;;;;;;;;5034745;28;20082;-78
2023/01/22 06:25:20;;;;;;;2.08;1.80;;;;;;;;;;5035888;28;20076;-78
2023/01/22 06:27:46;;;;;;;3.47;2.53;;;;;;;;;;5030723;28;20591;-78
2023/01/22 06:30:12;;;;;;;1.83;1.48;;;;;;;;;;5041132;28;20028;-77
2023/01/22 06:32:38;;;;;;;2.40;1.60;;;;;;;;;;5030229;28;20051;-78
2023/01/22 06:35:04;;;;;;;2.83;2.20;;;;;;;;;;5035938;28;20552;-78
2023/01/22 06:37:30;;;;;;;3.13;2.30;;;;;;;;;;5033223;28;20418;-78
2023/01/22 06:39:57;;;;;;;4.70;2.35;;;;;;;;;;5034779;28;20027;-78
2023/01/22 06:42:23;;;;;;;2.58;1.80;;;;;;;;;;5030467;28;20033;-78
2023/01/22 06:44:50;;;;;;;2.03;1.60;;;;;;;;;;5034343;28;20147;-78
2023/01/22 06:47:16;;;;;;;2.00;1.80;;;;;;;;;;5028364;28;20030;-77
2023/01/22 06:49:42;;;;;;;2.20;1.73;;;;;;;;;;5030166;28;20025;-77
2023/01/22 06:52:08;;;;;;;3.67;1.90;;;;;;;;;;5038168;28;20498;-78
2023/01/22 06:54:34;;;;;;;2.17;1.75;;;;;;;;;;5035853;28;20029;-77
2023/01/22 06:57:00;;;;;;;2.83;1.70;;;;;;;;;;5036487;28;20021;-77
2023/01/22 06:59:26;;;;;;;4.13;1.98;;;;;;;;;;5038543;28;20030;-78
2023/01/22 07:01:53;;;;;;;2.20;1.70;;;;;;;;;;5038384;28;20034;-77
2023/01/22 07:04:19;;;;;;;2.42;1.60;;;;;;;;;;5029563;28;20072;-78
2023/01/22 07:06:45;;;;;;;4.25;2.13;;;;;;;;;;5028472;28;20021;-77
2023/01/22 07:09:11;;;;;;;1.70;1.60;;;;;;;;;;5045533;28;20021;-77
2023/01/22 07:11:37;;;;;;;7.10;2.15;;;;;;;;;;5038330;28;20075;-78
2023/01/22 07:14:03;;;;;;;2.38;1.50;;;;;;;;;;5033172;28;20038;-78
2023/01/22 07:16:30;;;;;;;1.60;1.50;;;;;;;;;;5041488;28;20469;-77
2023/01/22 07:18:56;;;;;;;1.60;1.50;;;;;;;;;;5036320;28;20045;-76
2023/01/22 07:21:22;;;;;;;2.15;1.50;;;;;;;;;;5036846;28;20417;-78
2023/01/22 07:23:48;;;;;;;3.05;1.60;;;;;;;;;;5037843;28;20465;-78
2023/01/22 07:26:15;;;;;;;1.60;1.50;;;;;;;;;;5031473;28;20144;-76
2023/01/22 07:28:43;;;;;;;2.30;1.77;;;;;;;;;;5030242;28;20477;-78
2023/01/22 07:31:09;;;;;;;1.58;1.48;;;;;;;;;;5040737;28;20110;-78
2023/01/22 07:33:35;;;;;;;1.95;1.67;;;;;;;;;;5037081;28;20063;-78
2023/01/22 07:36:02;;;;;;;1.83;1.50;;;;;;;;;;5031406;28;20021;-77
2023/01/22 07:38:28;;;;;;;2.58;1.60;;;;;;;;;;5038349;28;20095;-77
2023/01/22 07:40:59;;;;;;;2.20;1.50;;;;;;;;;;5029184;28;20568;-78
2023/01/22 07:43:25;;;;;;;2.58;1.50;;;;;;;;;;5035113;28;20490;-77
2023/01/22 07:45:52;;;;;;;3.50;1.65;;;;;;;;;;5040546;28;20026;-76
2023/01/22 07:48:19;;;;;;;1.58;1.48;;;;;;;;;;5050270;28;20027;-78
2023/01/22 07:50:45;;;;;;;2.78;1.60;;;;;;;;;;5035190;28;20036;-78
2023/01/22 07:53:11;;;;;;;1.95;1.70;;;;;;;;;;5036748;28;20787;-77
2023/01/22 07:55:37;;;;;;;1.45;1.40;;;;;;;;;;5037232;28;20037;-78
2023/01/22 07:58:05;;;;;;;2.67;1.65;;;;;;;;;;5047541;28;20099;-78
2023/01/22 08:00:33;;;;;;;1.52;1.42;;;;;;;;;;5033643;28;20037;-77
2023/01/22 08:02:59;;;;;;;2.20;1.75;;;;;;;;;;5033361;28;20029;-78
2023/01/22 08:05:26;;;;;;;2.10;1.90;;;;;;;;;;5043452;28;20033;-78
2023/01/22 08:07:52;;;;;;;1.77;1.60;;;;;;;;;;5037148;28;20117;-78
2023/01/22 08:10:18;;;;;;;1.67;1.38;;;;;;;;;;5046022;28;20032;-78
2023/01/22 08:12:44;;;;;;;1.75;1.50;;;;;;;;;;5044640;28;20083;-78
2023/01/22 08:15:11;;;;;;;1.73;1.48;;;;;;;;;;5034606;28;20488;-78
2023/01/22 08:17:38;;;;;;;1.70;1.60;;;;;;;;;;5039831;28;20091;-78
2023/01/22 08:20:05;;;;;;;2.10;1.52;;;;;;;;;;5039922;28;20076;-78
2023/01/22 08:22:31;;;;;;;1.70;1.60;;;;;;;;;;5043797;28;20431;-77
2023/01/22 08:24:57;;;;;;;1.70;1.60;;;;;;;;;;5047012;28;20061;-78
2023/01/22 08:27:23;;;;;;;1.98;1.88;;;;;;;;;;5037412;28;20025;-78
2023/01/22 08:29:49;;;;;;;2.95;1.60;;;;;;;;;;5037630;28;20086;-78
2023/01/22 08:32:16;;;;;;;1.98;1.60;;;;;;;;;;5045440;28;20088;-78
2023/01/22 08:34:42;;;;;;;2.22;1.85;;;;;;;;;;5041691;28;20056;-78
2023/01/22 08:37:08;;;;;;;1.55;1.45;;;;;;;;;;5040538;28;20481;-78
2023/01/22 08:39:34;;;;;;;1.60;1.50;;;;;;;;;;5035627;28;20039;-78
2023/01/22 08:42:00;;;;;;;1.70;1.60;;;;;;;;;;5036433;28;20030;-78
2023/01/22 08:44:26;;;;;;;1.98;1.38;;;;;;;;;;5033987;28;20075;-77
2023/01/22 08:46:52;;;;;;;1.70;1.55;;;;;;;;;;5043874;28;20035;-77
2023/01/22 08:49:20;;;;;;;1.65;1.55;;;;;;;;;;5034900;28;20597;-77
2023/01/22 08:51:46;;;;;;;1.70;1.50;;;;;;;;;;5041215;28;20116;-78
2023/01/22 08:54:12;;;;;;;3.10;1.50;;;;;;;;;;5033241;28;20132;-78
2023/01/22 08:56:38;;;;;;;1.80;1.50;;;;;;;;;;5043442;28;20739;-78
2023/01/22 08:59:05;;;;;;;1.70;1.60;;;;;;;;;;5038345;28;20044;-78
2023/01/22 09:01:31;;;;;;;3.33;1.60;;;;;;;;;;5037848;28;20041;-79
2023/01/22 09:03:58;;;;;;;1.60;1.50;;;;;;;;;;5037674;28;20029;-79
2023/01/22 09:06:25;;;;;;;1.63;1.50;;;;;;;;;;5043633;28;20044;-79
2023/01/22 09:08:52;;;;;;;2.35;1.52;;;;;;;;;;5037533;28;20682;-79
2023/01/22 09:11:18;;;;;;;2.97;1.58;;;;;;;;;;5042914;28;20032;-78
2023/01/22 09:13:44;;;;;;;2.03;1.65;;;;;;;;;;5036113;28;20111;-78
2023/01/22 09:16:10;;;;;;;3.65;2.03;;;;;;;;;;5030110;28;20704;-78
2023/01/22 09:18:37;;;;;;;2.47;1.70;;;;;;;;;;5036250;28;20079;-78
2023/01/22 09:21:04;;;;;;;2.67;1.83;;;;;;;;;;5030100;28;20045;-78
2023/01/22 09:23:30;;;;;;;1.80;1.70;;;;;;;;;;5046008;28;20029;-77
2023/01/22 09:25:57;;;;;;;4.35;1.80;;;;;;;;;;5035186;28;20040;-77
2023/01/22 09:28:23;;;;;;;1.63;1.52;;;;;;;;;;5037308;28;20052;-79
2023/01/22 09:30:49;;;;;;;4.13;1.50;;;;;;;;;;5050457;28;20024;-78
2023/01/22 09:33:15;;;;;;;1.92;1.65;;;;;;;;;;5033654;28;20132;-78
2023/01/22 09:35:41;;;;;;;2.05;1.60;;;;;;;;;;5038799;28;20140;-78
2023/01/22 09:38:08;;;;;;;5.30;2.28;;;;;;;;;;5036741;28;20092;-77
2023/01/22 09:40:43;;;;;;;1.50;1.40;;;;;;;;;;5034239;28;20048;-78
2023/01/22 09:43:09;;;;;;;;;;;;;;;;;;5035624;28;20033;-78
2023/01/22 09:45:35;;;;;;;;;;;;;;;;;;5039154;28;19915;-78
2023/01/22 09:48:01;;;;;;;;;;;;;;;;;;5038847;28;19913;-78
2023/01/22 09:50:32;;;;;;;2.15;1.73;;;;;;;;;;5037529;28;19951;-78
2023/01/22 09:53:01;;;;;;;1.70;1.60;;;;;;;;;;5038661;28;20037;-80
2023/01/22 09:55:29;;;;;;;2.03;1.60;;;;;;;;;;5038825;28;20044;-79
2023/01/22 09:57:56;;;;;;;1.88;1.77;;;;;;;;;;5040491;28;20616;-78
2023/01/22 10:00:24;;;;;;;1.60;1.45;;;;;;;;;;5041687;28;20567;-78
2023/01/22 10:02:53;;;;;;;2.65;1.73;;;;;;;;;;5044553;28;20018;-77
2023/01/22 10:05:25;;;;;;;3.08;1.55;;;;;;;;;;5042462;28;20029;-79
2023/01/22 10:08:01;;;;;;;1.70;1.60;;;;;;;;;;5042207;28;20029;-80
2023/01/22 10:10:28;;;;;;;2.63;1.92;;;;;;;;;;5043304;28;20025;-78
2023/01/22 10:13:00;;;;;;;2.13;1.52;;;;;;;;;;5041205;28;20615;-79
2023/01/22 10:15:27;;;;;;;2.50;1.90;;;;;;;;;;5047773;28;20032;-76
2023/01/22 10:17:57;;;;;;;2.00;1.80;;;;;;;;;;5041394;28;20221;-78
2023/01/22 10:20:23;;;;;;;1.83;1.70;;;;;;;;;;5044423;28;20075;-78
2023/01/22 10:22:52;;;;;;;2.42;2.13;;;;;;;;;;5044304;28;20029;-78
2023/01/22 10:25:18;;;;;;;2.45;1.80;;;;;;;;;;5042703;28;20025;-78
2023/01/22 10:27:45;;;;;;;3.03;2.10;;;;;;;;;;5039755;28;20025;-78
2023/01/22 10:30:21;;;;;;;5.03;2.20;;;;;;;;;;5041916;28;20535;-78
2023/01/22 10:33:01;;;;;;;2.90;2.08;;;;;;;;;;5042966;28;20025;-78
2023/01/22 10:35:30;;;;;;;2.80;2.00;;;;;;;;;;5044922;28;20029;-79
2023/01/22 10:37:57;;;;;;;2.75;2.22;;;;;;;;;;5041507;28;20036;-78
2023/01/22 10:40:31;;;;;;;3.35;2.42;;;;;;;;;;5040929;28;20063;-78
2023/01/22 10:43:01;;;;;;;3.30;2.40;;;;;;;;;;5042925;28;20037;-78
2023/01/22 10:45:27;;;;;;;2.88;2.28;;;;;;;;;;5043412;28;20029;-78
2023/01/22 10:48:11;;;;;;;5.00;2.33;;;;;;;;;;5041580;28;20063;-79
2023/01/22 10:50:37;;;;;;;4.30;1.90;;;;;;;;;;5043737;28;20857;-78
2023/01/22 10:53:04;;;;;;;2.08;1.88;;;;;;;;;;5043194;28;20083;-78
2023/01/22 10:55:34;;;;;;;2.70;1.83;;;;;;;;;;5045902;28;20033;-76
2023/01/22 10:58:04;;;;;;;1.67;1.55;;;;;;;;;;5044481;28;20142;-78
2023/01/22 11:00:34;;;;;;;1.95;1.83;;;;;;;;;;5043448;28;20033;-78
2023/01/22 11:03:01;;;;;;;2.20;1.80;;;;;;;;;;5039258;28;20394;-78
2023/01/22 11:05:31;;;;;;;1.75;1.60;;;;;;;;;;5043288;28;20029;-78
2023/01/22 11:07:59;;;;;;;3.70;2.15;;;;;;;;;;5047963;28;20021;-78
2023/01/22 11:10:28;;;;;;;3.00;2.00;;;;;;;;;;5042974;28;20512;-78
2023/01/22 11:12:58;;;;;;;4.03;2.70;;;;;;;;;;5042668;28;20083;-78
2023/01/22 11:15:31;;;;;;;3.88;2.78;;;;;;;;;;5043241;28;20043;-79
2023/01/22 11:17:59;;;;;;;3.70;2.47;;;;;;;;;;5041194;28;20152;-78
2023/01/22 11:20:28;;;;;;;2.13;1.73;;;;;;;;;;5044321;28;20054;-78
2023/01/22 11:22:59;;;;;;;3.50;2.42;;;;;;;;;;5043143;28;20040;-79
2023/01/22 11:25:27;;;;;;;4.20;3.10;;;;;;;;;;5042882;28;20033;-77
2023/01/22 11:28:07;;;;;;;7.70;5.22;;;;;;;;;;5043906;28;20041;-77
2023/01/22 11:30:33;;;;;;;4.35;2.53;;;;;;;;;;5039916;28;20107;-78
2023/01/22 11:33:08;;;;;;;2.60;1.95;;;;;;;;;;5042257;28;20180;-78
2023/01/22 11:35:37;;;;;;;2.30;1.90;;;;;;;;;;5043854;28;20058;-77
2023/01/22 11:38:10;;;;;;;5.25;2.20;;;;;;;;;;5043946;28;20040;-78
2023/01/22 11:40:45;;;;;;;2.20;2.00;;;;;;;;;;5043708;28;20040;-79
2023/01/22 11:43:25;;;;;;;5.53;3.75;;;;;;;;;;5045859;28;20078;-78
2023/01/22 11:45:56;;;;;;;4.43;3.25;;;;;;;;;;5046523;28;20025;-78
2023/01/22 11:48:45;;;;;;;2.80;2.50;;;;;;;;;;5046766;28;20040;-78
2023/01/22 11:51:30;;;;;;;5.43;3.08;;;;;;;;;;5046043;28;20562;-78
2023/01/22 11:54:22;;;;;;;4.03;3.07;;;;;;;;;;5046861;28;20029;-78
2023/01/22 11:57:18;;;;;;;5.10;3.20;;;;;;;;;;5047874;28;20765;-78
2023/01/22 12:00:03;;;;;;;2.30;2.10;;;;;;;;;;5037664;28;20121;-78
2023/01/22 12:02:32;;;;;;;3.05;2.25;;;;;;;;;;5047708;28;20041;-79
2023/01/22 12:05:07;;;;;;;2.25;2.05;;;;;;;;;;5044849;28;20465;-78
2023/01/22 12:07:52;;;;;;;2.75;2.53;;;;;;;;;;5045061;28;20017;-78
2023/01/22 12:10:18;;;;;;;2.83;2.37;;;;;;;;;;5045722;28;20760;-79
2023/01/22 12:12:50;;;;;;;2.17;1.80;;;;;;;;;;5045295;28;20886;-78
2023/01/22 12:15:22;;;;;;;1.60;1.50;;;;;;;;;;5047137;28;20033;-78
2023/01/22 12:18:00;;;;;;;1.88;1.73;;;;;;;;;;5044918;28;20036;-78
2023/01/22 12:20:26;;;;;;;2.70;2.45;;;;;;;;;;5046287;28;20124;-78
2023/01/22 12:22:52;;;;;;;1.77;1.67;;;;;;;;;;5047037;28;20509;-78
2023/01/22 12:25:41;;;;;;;2.40;2.20;;;;;;;;;;5048730;28;20367;-78
2023/01/22 12:28:11;;;;;;;4.63;3.40;;;;;;;;;;5046155;28;20045;-77
2023/01/22 12:30:43;;;;;;;3.15;2.10;;;;;;;;;;5042962;28;20033;-77
2023/01/22 12:33:12;;;;;;;2.28;1.90;;;;;;;;;;5045116;28;20833;-78
2023/01/22 12:35:38;;;;;;;3.20;2.10;;;;;;;;;;5045777;28;20024;-79
2023/01/22 12:38:07;;;;;;;4.45;2.35;;;;;;;;;;5043210;28;20025;-78
2023/01/22 12:40:36;;;;;;;2.05;1.80;;;;;;;;;;5044517;28;20116;-78
2023/01/22 12:43:03;;;;;;;1.90;1.60;;;;;;;;;;5046323;28;20034;-78
2023/01/22 12:45:32;;;;;;;2.28;2.03;;;;;;;;;;5047225;28;20049;-77
2023/01/22 12:48:04;;;;;;;2.35;1.98;;;;;;;;;;5042983;28;20566;-78
2023/01/22 12:50:30;;;;;;;2.08;1.70;;;;;;;;;;5048612;28;20017;-78
2023/01/22 12:52:58;;;;;;;1.90;1.80;;;;;;;;;;5042490;28;20057;-78
2023/01/22 12:55:39;;;;;;;4.10;2.92;;;;;;;;;;5043017;28;20095;-78
2023/01/22 12:58:17;;;;;;;2.30;2.10;;;;;;;;;;5039946;28;20033;-78
2023/01/22 13:00:43;;;;;;;3.42;2.17;;;;;;;;;;5040126;28;20026;-77
2023/01/22 13:03:27;;;;;;;2.28;2.03;;;;;;;;;;5042202;28;20619;-76
2023/01/22 13:05:54;;;;;;;2.50;2.00;;;;;;;;;;5043183;28;20587;-75
2023/01/22 13:08:20;;;;;;;1.88;1.70;;;;;;;;;;5043741;28;20083;-77
2023/01/22 13:10:57;;;;;;;2.20;2.00;;;;;;;;;;5038876;28;20041;-77
2023/01/22 13:13:31;;;;;;;1.85;1.67;;;;;;;;;;5046220;28;20449;-75
2023/01/22 13:16:02;;;;;;;1.73;1.63;;;;;;;;;;5040260;28;20355;-77
2023/01/22 13:18:32;;;;;;;2.40;1.73;;;;;;;;;;5043507;28;20037;-80
2023/01/22 13:21:02;;;;;;;3.75;2.40;;;;;;;;;;5043975;28;20053;-78
2023/01/22 13:23:30;;;;;;;2.40;2.00;;;;;;;;;;5039691;28;20061;-78
2023/01/22 13:25:57;;;;;;;4.00;2.30;;;;;;;;;;5041996;28;20029;-78
2023/01/22 13:28:24;;;;;;;4.05;3.25;;;;;;;;;;5043790;28;20051;-78
2023/01/22 13:31:02;;;;;;;3.17;2.42;;;;;;;;;;5044509;28;20025;-78
2023/01/22 13:33:28;;;;;;;4.10;2.50;;;;;;;;;;5041523;28;20021;-79
2023/01/22 13:35:55;;;;;;;4.13;2.35;;;;;;;;;;5055517;28;20079;-78
2023/01/22 13:38:28;;;;;;;3.13;2.40;;;;;;;;;;5039313;28;20505;-80
2023/01/22 13:40:56;;;;;;;2.55;2.00;;;;;;;;;;5041510;28;20056;-78
2023/01/22 13:43:23;;;;;;;2.22;1.90;;;;;;;;;;5043902;28;20033;-78
2023/01/22 13:45:51;;;;;;;1.95;1.70;;;;;;;;;;5043214;28;20457;-78
2023/01/22 13:48:18;;;;;;;2.50;2.20;;;;;;;;;;5043588;28;20059;-79
2023/01/22 13:50:46;;;;;;;2.13;1.92;;;;;;;;;;5042268;28;20017;-78
2023/01/22 13:53:21;;;;;;;2.20;1.90;;;;;;;;;;5045177;28;20032;-79
2023/01/22 13:55:47;;;;;;;1.85;1.70;;;;;;;;;;5045113;28;20037;-79
2023/01/22 13:58:32;;;;;;;2.33;2.10;;;;;;;;;;5039744;28;20028;-78
2023/01/22 14:00:58;;;;;;;3.97;3.67;;;;;;;;;;5043466;28;20179;-78
2023/01/22 14:03:25;;;;;;;1.95;1.80;;;;;;;;;;5040698;28;20838;-78
2023/01/22 14:06:01;;;;;;;2.40;2.20;;;;;;;;;;5046550;28;20056;-78
2023/01/22 14:08:27;;;;;;;4.07;2.15;;;;;;;;;;5042736;28;20032;-81
2023/01/22 14:10:58;;;;;;;4.53;3.47;;;;;;;;;;5047299;28;20104;-78
2023/01/22 14:13:24;;;;;;;2.47;2.15;;;;;;;;;;5043921;28;20480;-79
2023/01/22 14:15:58;;;;;;;2.28;1.98;;;;;;;;;;5033964;28;20052;-82
2023/01/22 14:18:29;;;;;;;2.38;1.88;;;;;;;;;;5038223;28;20112;-81
2023/01/22 14:20:55;;;;;;;3.80;3.15;;;;;;;;;;5038375;28;20140;-79
2023/01/22 14:23:21;;;;;;;8.80;6.60;;;;;;;;;;5039893;28;20028;-78
2023/01/22 14:25:49;;;;;;;7.68;5.53;;;;;;;;;;5040642;28;20044;-78
2023/01/22 14:28:16;;;;;;;3.08;2.78;;;;;;;;;;5041320;28;20037;-78
2023/01/22 14:30:42;;;;;;;3.20;2.90;;;;;;;;;;5041108;28;20032;-78
2023/01/22 14:33:13;;;;;;;4.10;3.50;;;;;;;;;;5043053;28;20075;-78
2023/01/22 14:35:39;;;;;;;2.67;2.33;;;;;;;;;;5041788;28;20067;-78
2023/01/22 14:38:05;;;;;;;3.65;2.33;;;;;;;;;;5041876;28;20037;-78
2023/01/22 14:40:31;;;;;;;3.40;2.97;;;;;;;;;;5039077;28;20438;-79
2023/01/22 14:42:59;;;;;;;2.83;2.15;;;;;;;;;;5038106;28;20053;-77
2023/01/22 14:45:26;;;;;;;2.30;2.10;;;;;;;;;;5041117;28;20052;-80
2023/01/22 14:47:52;;;;;;;4.30;2.70;;;;;;;;;;5040678;28;20108;-80
2023/01/22 14:50:19;;;;;;;2.33;2.10;;;;;;;;;;5042772;28;20029;-79
2023/01/22 14:52:45;;;;;;;3.95;2.72;;;;;;;;;;5043017;28;20039;-80
2023/01/22 14:55:11;;;;;;;3.22;2.92;;;;;;;;;;5043402;28;20036;-79
2023/01/22 14:57:37;;;;;;;3.00;2.58;;;;;;;;;;5042685;28;20113;-78